Time;durP1;ratioP1;P1;durP2;ratioP2;P2;SDS_P1;SDS_P2;PMS_P1;PMS_P2;Temp;Humidity;BMP_temperature;BMP_pressure;BME280_temperature;BME280_humidity;BME280_pressure;Samples;Min_cycle;Max_cycle;Signal;HPM_P1;HPM_P2
2022/06/05 00:02:02;;;;;;;16.35;9.80;;;12.60;99.90;;;;;;5094786;28;20051;-69
2022/06/05 00:04:45;;;;;;;20.20;10.45;;;12.60;99.90;;;;;;5094540;28;20047;-69
2022/06/05 00:07:27;;;;;;;17.38;9.68;;;12.60;99.90;;;;;;5079217;28;20076;-70
2022/06/05 00:09:54;;;;;;;18.50;11.60;;;12.60;99.90;;;;;;5094454;28;20052;-70
2022/06/05 00:12:24;;;;;;;20.40;10.32;;;12.50;99.90;;;;;;5096046;28;20048;-69
2022/06/05 00:14:51;;;;;;;20.02;10.93;;;12.50;99.90;;;;;;5095066;28;20044;-69
2022/06/05 00:17:19;;;;;;;18.23;10.57;;;12.50;99.90;;;;;;5094037;28;20044;-69
2022/06/05 00:19:49;;;;;;;18.05;11.15;;;12.50;99.90;;;;;;5094807;28;20048;-70
2022/06/05 00:22:15;;;;;;;17.77;10.50;;;12.40;99.90;;;;;;5095362;28;20036;-70
2022/06/05 00:24:42;;;;;;;17.40;11.02;;;12.30;99.90;;;;;;5095208;28;20063;-70
2022/06/05 00:27:31;;;;;;;21.75;11.43;;;12.40;99.90;;;;;;5094847;28;20051;-70
2022/06/05 00:30:17;;;;;;;15.63;11.75;;;12.30;99.90;;;;;;5095032;28;20383;-69
2022/06/05 00:32:56;;;;;;;19.88;11.70;;;12.30;99.90;;;;;;5093778;28;20511;-69
2022/06/05 00:35:30;;;;;;;17.98;11.68;;;12.30;99.90;;;;;;5095905;28;20044;-70
2022/06/05 00:38:12;;;;;;;19.40;11.00;;;12.30;99.90;;;;;;5094515;28;20075;-70
2022/06/05 00:41:00;;;;;;;18.83;11.63;;;12.20;99.90;;;;;;5095602;28;20040;-70
2022/06/05 00:43:27;;;;;;;19.83;11.20;;;12.20;99.90;;;;;;5094640;28;20469;-70
2022/06/05 00:45:55;;;;;;;19.98;11.55;;;12.20;99.90;;;;;;5093558;28;20044;-71
2022/06/05 00:48:22;;;;;;;23.08;11.75;;;12.20;99.90;;;;;;5093202;28;20472;-70
2022/06/05 00:50:49;;;;;;;21.42;11.23;;;12.20;99.90;;;;;;5093245;28;20365;-70
2022/06/05 00:53:16;;;;;;;20.45;12.45;;;12.20;99.90;;;;;;5093276;28;20044;-70
2022/06/05 00:55:45;;;;;;;20.17;11.63;;;12.20;99.90;;;;;;5093751;28;20430;-70
2022/06/05 00:58:11;;;;;;;17.70;11.57;;;12.20;99.90;;;;;;5094424;28;20044;-70
2022/06/05 01:00:44;;;;;;;20.25;11.90;;;12.20;99.90;;;;;;5094561;28;20044;-70
2022/06/05 01:03:11;;;;;;;18.80;11.85;;;12.20;99.90;;;;;;5093925;28;20379;-70
2022/06/05 01:05:39;;;;;;;18.63;11.98;;;12.20;99.90;;;;;;5093325;28;20097;-70
2022/06/05 01:08:06;;;;;;;20.88;12.05;;;12.10;99.90;;;;;;5094083;28;20063;-70
2022/06/05 01:10:36;;;;;;;18.17;10.82;;;12.10;99.90;;;;;;5093034;28;20127;-70
2022/06/05 01:13:12;;;;;;;19.23;12.05;;;12.10;99.90;;;;;;5095234;28;20123;-70
2022/06/05 01:15:53;;;;;;;20.95;12.20;;;12.10;99.90;;;;;;5093019;28;20048;-70
2022/06/05 01:18:24;;;;;;;15.93;11.18;;;12.00;99.90;;;;;;5093660;28;20438;-71
2022/06/05 01:21:27;;;;;;;23.42;12.85;;;12.00;99.90;;;;;;5093663;28;20048;-70
2022/06/05 01:24:10;;;;;;;17.63;11.63;;;12.00;99.90;;;;;;5094866;28;20043;-70
2022/06/05 01:26:38;;;;;;;23.90;12.65;;;12.00;99.90;;;;;;5092762;28;20044;-70
2022/06/05 01:29:13;;;;;;;27.83;12.95;;;12.00;99.90;;;;;;5092439;28;20483;-70
2022/06/05 01:31:55;;;;;;;22.65;13.13;;;11.90;99.90;;;;;;5093575;28;20048;-70
2022/06/05 01:34:44;;;;;;;21.80;13.52;;;12.00;99.90;;;;;;5076604;28;20052;-70
2022/06/05 01:37:44;;;;;;;21.40;12.75;;;12.00;99.90;;;;;;5093190;28;20048;-71
2022/06/05 01:40:19;;;;;;;18.17;12.05;;;11.90;99.90;;;;;;5092960;28;20062;-70
2022/06/05 01:42:52;;;;;;;20.48;13.60;;;11.90;99.90;;;;;;5092428;28;20066;-70
2022/06/05 01:45:49;;;;;;;20.48;12.27;;;11.90;99.90;;;;;;5092375;28;20036;-71
2022/06/05 01:48:22;;;;;;;21.27;13.48;;;11.90;99.90;;;;;;5091966;28;20040;-70
2022/06/05 01:50:51;;;;;;;17.60;11.40;;;11.80;99.90;;;;;;5092783;28;20055;-70
2022/06/05 01:53:45;;;;;;;19.00;12.20;;;11.90;99.90;;;;;;5092078;28;20048;-70
2022/06/05 01:56:15;;;;;;;15.18;10.77;;;11.80;99.90;;;;;;5077280;28;20273;-70
2022/06/05 01:58:53;;;;;;;18.00;11.43;;;11.80;99.90;;;;;;5093150;28;20044;-70
2022/06/05 02:01:23;;;;;;;20.70;11.77;;;11.80;99.90;;;;;;5092787;28;20062;-70
2022/06/05 02:03:57;;;;;;;15.07;11.07;;;11.80;99.90;;;;;;5091803;28;20434;-70
2022/06/05 02:06:32;;;;;;;14.98;10.52;;;11.80;99.90;;;;;;5092156;28;20051;-70
2022/06/05 02:09:04;;;;;;;13.70;10.52;;;11.80;99.90;;;;;;5091896;28;20040;-70
2022/06/05 02:11:32;;;;;;;19.27;10.35;;;11.80;99.90;;;;;;5092255;28;20044;-70
2022/06/05 02:14:00;;;;;;;18.73;10.27;;;11.80;99.90;;;;;;5091844;28;20472;-70
2022/06/05 02:16:29;;;;;;;16.00;10.52;;;11.80;99.90;;;;;;5094527;28;20044;-70
2022/06/05 02:18:57;;;;;;;13.25;10.18;;;11.80;99.90;;;;;;5094057;28;20052;-70
2022/06/05 02:21:25;;;;;;;14.02;10.63;;;11.80;99.90;;;;;;5094580;28;20082;-70
2022/06/05 02:23:52;;;;;;;12.38;10.25;;;11.80;99.90;;;;;;5092970;28;20055;-70
2022/06/05 02:26:19;;;;;;;12.20;9.88;;;11.90;99.90;;;;;;5091938;28;20044;-70
2022/06/05 02:28:45;;;;;;;13.75;10.07;;;11.90;99.90;;;;;;5058725;28;20444;-70
2022/06/05 02:31:40;;;;;;;14.57;9.98;;;11.90;99.90;;;;;;5092713;28;20468;-70
2022/06/05 02:34:22;;;;;;;13.60;10.38;;;11.80;99.90;;;;;;5093281;28;20086;-70
2022/06/05 02:37:03;;;;;;;12.52;10.63;;;11.80;99.90;;;;;;5092227;28;20036;-70
2022/06/05 02:40:06;;;;;;;14.45;10.63;;;11.80;99.90;;;;;;5092032;28;20047;-70
2022/06/05 02:42:34;;;;;;;12.45;11.20;;;11.80;99.90;;;;;;5092667;28;20375;-70
2022/06/05 02:45:20;;;;;;;14.52;11.23;;;11.90;99.90;;;;;;5091843;28;20040;-70
2022/06/05 02:48:05;;;;;;;19.20;13.82;;;11.90;99.90;;;;;;5092687;28;20496;-70
2022/06/05 02:50:55;;;;;;;15.98;13.30;;;11.90;99.90;;;;;;5092816;28;20410;-70
2022/06/05 02:53:21;;;;;;;;;;;11.90;99.90;;;;;;5093820;28;20052;-70
2022/06/05 02:55:48;;;;;;;20.35;13.25;;;11.90;99.90;;;;;;5096455;28;19916;-70
2022/06/05 02:58:16;;;;;;;21.85;15.27;;;11.90;99.90;;;;;;5096655;28;20040;-70
2022/06/05 03:03:27;;;;;;;22.75;14.55;;;11.90;99.90;;;;;;5096526;28;20040;-70
2022/06/05 03:03:30;;;;;;;19.42;13.98;;;11.90;99.90;;;;;;5097420;28;20119;-69
2022/06/05 03:06:01;;;;;;;22.45;14.45;;;11.90;99.90;;;;;;5095242;28;20036;-70
2022/06/05 03:08:28;;;;;;;23.60;15.07;;;11.90;99.90;;;;;;5095036;28;20062;-69
2022/06/05 03:10:55;;;;;;;22.00;15.55;;;11.90;99.90;;;;;;5096777;28;20052;-69
2022/06/05 03:13:22;;;;;;;23.05;15.93;;;11.90;99.90;;;;;;5094887;28;20040;-69
2022/06/05 03:15:50;;;;;;;18.17;14.23;;;11.90;99.90;;;;;;5096447;28;20044;-69
2022/06/05 03:18:17;;;;;;;19.60;15.60;;;11.90;99.90;;;;;;5095066;28;20076;-69
2022/06/05 03:20:43;;;;;;;20.30;14.93;;;11.90;99.90;;;;;;5096029;28;20047;-69
2022/06/05 03:23:11;;;;;;;19.92;15.55;;;12.00;99.90;;;;;;5094743;28;20047;-69
2022/06/05 03:25:40;;;;;;;17.23;14.98;;;12.00;99.90;;;;;;5094997;28;20039;-70
2022/06/05 03:28:07;;;;;;;16.33;14.48;;;12.00;99.90;;;;;;5096723;28;20066;-70
2022/06/05 03:30:41;;;;;;;23.13;14.93;;;12.00;99.90;;;;;;5095260;28;20051;-69
2022/06/05 03:33:08;;;;;;;22.30;15.75;;;12.00;99.90;;;;;;5094635;28;20039;-70
2022/06/05 03:35:40;;;;;;;19.67;14.73;;;12.00;99.90;;;;;;5095383;28;20055;-70
2022/06/05 03:38:07;;;;;;;20.42;15.18;;;12.00;99.90;;;;;;5095631;28;20379;-70
2022/06/05 03:40:34;;;;;;;19.50;16.08;;;12.00;99.90;;;;;;5077717;28;20494;-70
2022/06/05 03:43:01;;;;;;;17.55;14.63;;;12.00;99.90;;;;;;5095621;28;20416;-70
2022/06/05 03:45:28;;;;;;;19.05;14.30;;;12.00;99.90;;;;;;5095170;28;20039;-70
2022/06/05 03:47:54;;;;;;;22.30;15.77;;;12.00;99.90;;;;;;5094407;28;20043;-70
2022/06/05 03:50:22;;;;;;;18.92;14.13;;;12.00;99.90;;;;;;5095396;28;20040;-70
2022/06/05 03:52:48;;;;;;;20.88;15.13;;;12.00;99.90;;;;;;5095690;28;20044;-70
2022/06/05 03:55:18;;;;;;;22.60;15.93;;;12.10;99.90;;;;;;5096492;28;20044;-70
2022/06/05 03:57:45;;;;;;;19.85;14.88;;;12.10;99.90;;;;;;5094478;28;20044;-70
2022/06/05 04:00:12;;;;;;;25.38;15.80;;;12.00;99.90;;;;;;5094437;28;20044;-70
2022/06/05 04:02:39;;;;;;;21.40;15.52;;;12.10;99.90;;;;;;5095096;28;20044;-70
2022/06/05 04:05:07;;;;;;;20.20;14.73;;;12.10;99.90;;;;;;5076976;28;20044;-70
2022/06/05 04:07:34;;;;;;;22.25;15.45;;;12.10;99.90;;;;;;5095041;28;20059;-70
2022/06/05 04:10:01;;;;;;;21.38;15.60;;;12.10;99.90;;;;;;5094782;28;20040;-70
2022/06/05 04:12:27;;;;;;;20.45;15.05;;;12.10;99.90;;;;;;5077519;28;20047;-70
2022/06/05 04:14:54;;;;;;;21.73;15.70;;;12.10;99.90;;;;;;5094151;28;20047;-70
2022/06/05 04:17:21;;;;;;;19.30;15.65;;;12.20;99.90;;;;;;5094073;28;20048;-70
2022/06/05 04:19:48;;;;;;;20.85;16.08;;;12.20;99.90;;;;;;5094070;28;20051;-70
2022/06/05 04:22:15;;;;;;;18.73;15.52;;;12.20;99.90;;;;;;5094801;28;20040;-70
2022/06/05 04:24:42;;;;;;;22.88;15.98;;;12.20;99.90;;;;;;5093955;28;20048;-72
2022/06/05 04:27:08;;;;;;;18.17;14.57;;;12.20;99.90;;;;;;5077175;28;20120;-69
2022/06/05 04:29:35;;;;;;;21.50;16.02;;;12.20;99.90;;;;;;5095272;28;20048;-70
2022/06/05 04:32:03;;;;;;;20.90;15.60;;;12.20;99.90;;;;;;5094825;28;20040;-69
2022/06/05 04:34:29;;;;;;;22.77;17.05;;;12.20;99.90;;;;;;5094938;28;20048;-69
2022/06/05 04:36:56;;;;;;;23.80;15.90;;;12.30;99.90;;;;;;5094690;28;20040;-69
2022/06/05 04:39:23;;;;;;;22.33;15.60;;;12.30;99.90;;;;;;5093380;28;20489;-69
2022/06/05 04:41:50;;;;;;;25.13;17.60;;;12.30;99.90;;;;;;5093582;28;20048;-69
2022/06/05 04:44:17;;;;;;;22.27;16.15;;;12.30;99.90;;;;;;5093340;28;20036;-70
2022/06/05 04:46:44;;;;;;;25.52;17.52;;;12.30;99.90;;;;;;5094035;28;20048;-69
2022/06/05 04:49:12;;;;;;;24.50;17.65;;;12.20;99.90;;;;;;5093047;28;20386;-70
2022/06/05 04:51:40;;;;;;;24.20;15.88;;;12.30;99.90;;;;;;5076494;28;20044;-70
2022/06/05 04:54:08;;;;;;;26.88;17.48;;;12.30;99.90;;;;;;5093576;28;20048;-69
2022/06/05 04:56:35;;;;;;;27.58;18.88;;;12.30;99.90;;;;;;5093037;28;20044;-69
2022/06/05 04:59:03;;;;;;;20.58;16.63;;;12.30;99.90;;;;;;5094007;28;20047;-69
2022/06/05 05:01:35;;;;;;;22.45;17.25;;;12.30;99.90;;;;;;5093889;28;20047;-69
2022/06/05 05:04:05;;;;;;;22.35;17.00;;;12.40;99.90;;;;;;5092860;28;20126;-69
2022/06/05 05:06:32;;;;;;;;;;;12.30;99.90;;;;;;5093463;28;20051;-69
2022/06/05 05:08:59;;;;;;;28.02;16.60;;;12.30;99.90;;;;;;5094377;28;19915;-69
2022/06/05 05:11:26;;;;;;;23.88;17.88;;;12.30;99.90;;;;;;5093945;28;20044;-69
2022/06/05 05:13:56;;;;;;;26.88;17.52;;;12.30;99.90;;;;;;5094349;28;20040;-69
2022/06/05 05:16:23;;;;;;;28.48;17.88;;;12.30;99.90;;;;;;5076080;28;20046;-69
2022/06/05 05:18:50;;;;;;;31.55;19.25;;;12.30;99.90;;;;;;5093873;28;20072;-69
2022/06/05 05:21:19;;;;;;;27.60;18.17;;;12.30;99.90;;;;;;5093296;28;20062;-69
2022/06/05 05:23:46;;;;;;;23.40;17.17;;;12.30;99.90;;;;;;5092809;28;20047;-69
2022/06/05 05:26:18;;;;;;;31.00;19.90;;;12.40;99.90;;;;;;5092658;28;20044;-69
2022/06/05 05:28:45;;;;;;;30.73;18.30;;;12.40;99.90;;;;;;5094315;28;20059;-69
2022/06/05 05:31:14;;;;;;;26.75;18.00;;;12.40;99.90;;;;;;5092858;28;20494;-69
2022/06/05 05:33:41;;;;;;;28.65;18.35;;;12.40;99.90;;;;;;5092853;28;20080;-69
2022/06/05 05:36:09;;;;;;;30.58;21.52;;;12.40;99.90;;;;;;5092534;28;20043;-69
2022/06/05 05:38:36;;;;;;;30.58;18.65;;;12.40;99.90;;;;;;5075791;28;20055;-69
2022/06/05 05:43:49;;;;;;;29.27;19.52;;;12.40;99.90;;;;;;5092749;28;20040;-69
2022/06/05 05:46:16;;;;;;;30.48;20.20;;;12.40;99.90;;;;;;5093514;28;20043;-69
2022/06/05 05:48:43;;;;;;;35.10;19.77;;;12.50;99.90;;;;;;5092323;28;20073;-69
2022/06/05 05:51:14;;;;;;;32.58;20.88;;;12.50;99.90;;;;;;5093791;28;20050;-69
2022/06/05 05:53:41;;;;;;;27.27;19.77;;;12.50;99.90;;;;;;5092592;28;20481;-69
2022/06/05 05:56:11;;;;;;;29.73;20.00;;;12.50;99.90;;;;;;5092163;28;20476;-69
2022/06/05 05:58:38;;;;;;;32.92;19.92;;;12.50;99.90;;;;;;5075795;28;20044;-69
2022/06/05 06:01:06;;;;;;;41.10;21.80;;;12.50;99.90;;;;;;5092137;28;20055;-69
2022/06/05 06:03:34;;;;;;;35.35;20.30;;;12.50;99.90;;;;;;5092970;28;20071;-69
2022/06/05 06:06:01;;;;;;;30.77;19.08;;;12.50;99.90;;;;;;5092927;28;20036;-69
2022/06/05 06:08:28;;;;;;;35.63;19.77;;;12.50;99.90;;;;;;5092478;28;20360;-69
2022/06/05 06:10:54;;;;;;;31.90;19.90;;;12.60;99.90;;;;;;5093130;28;20067;-69
2022/06/05 06:13:22;;;;;;;31.63;19.70;;;12.60;99.90;;;;;;5092100;28;20048;-69
2022/06/05 06:15:49;;;;;;;28.20;18.63;;;12.60;99.90;;;;;;5075555;28;20047;-69
2022/06/05 06:18:20;;;;;;;25.20;19.25;;;12.70;99.90;;;;;;5093739;28;20048;-69
2022/06/05 06:20:47;;;;;;;30.45;19.88;;;12.70;99.90;;;;;;5091988;28;20044;-69
2022/06/05 06:23:14;;;;;;;37.42;19.70;;;12.70;99.90;;;;;;5091945;28;20046;-69
2022/06/05 06:25:41;;;;;;;28.73;19.45;;;12.80;99.90;;;;;;5092835;28;20115;-69
2022/06/05 06:28:09;;;;;;;32.17;18.70;;;12.80;99.90;;;;;;5092979;28;20040;-69
2022/06/05 06:30:36;;;;;;;29.27;20.02;;;12.80;99.90;;;;;;5095821;28;20040;-69
2022/06/05 06:33:03;;;;;;;33.58;19.30;;;12.90;99.90;;;;;;5097100;28;20036;-69
2022/06/05 06:35:30;;;;;;;28.67;18.75;;;12.90;99.90;;;;;;5096659;28;20051;-69
2022/06/05 06:37:57;;;;;;;34.90;18.95;;;12.90;99.90;;;;;;5097033;28;20040;-69
2022/06/05 06:40:24;;;;;;;30.27;19.23;;;12.90;99.90;;;;;;5097501;28;20047;-69
2022/06/05 06:42:53;;;;;;;40.50;21.33;;;12.90;99.90;;;;;;5097631;28;20480;-69
2022/06/05 06:45:20;;;;;;;36.58;20.95;;;12.90;99.90;;;;;;5096998;28;20126;-69
2022/06/05 06:47:48;;;;;;;29.25;19.25;;;12.90;99.90;;;;;;5095887;28;20051;-69
2022/06/05 06:50:16;;;;;;;34.15;20.17;;;12.80;99.90;;;;;;5095884;28;20051;-69
2022/06/05 06:52:43;;;;;;;28.17;19.08;;;12.80;99.90;;;;;;5095438;28;20048;-69
2022/06/05 06:55:15;;;;;;;37.58;20.30;;;12.80;99.90;;;;;;5095510;28;20050;-69
2022/06/05 06:57:44;;;;;;;33.88;19.88;;;12.90;99.90;;;;;;5095403;28;20541;-69
2022/06/05 07:00:14;;;;;;;30.38;19.40;;;12.90;99.90;;;;;;5095609;28;20044;-69
2022/06/05 07:02:41;;;;;;;30.98;19.52;;;13.00;99.90;;;;;;5096527;28;20050;-69
2022/06/05 07:05:09;;;;;;;29.83;20.63;;;13.00;99.90;;;;;;5095308;28;20486;-69
2022/06/05 07:07:36;;;;;;;29.27;18.85;;;13.00;99.90;;;;;;5096416;28;20040;-69
2022/06/05 07:10:04;;;;;;;30.05;20.27;;;13.00;99.90;;;;;;5095275;28;20491;-69
2022/06/05 07:12:33;;;;;;;33.60;20.60;;;13.10;99.90;;;;;;5095248;28;20479;-69
2022/06/05 07:15:00;;;;;;;32.13;19.58;;;13.10;99.90;;;;;;5096193;28;20040;-69
2022/06/05 07:17:27;;;;;;;35.92;20.65;;;13.10;99.90;;;;;;5096544;28;20036;-69
2022/06/05 07:19:54;;;;;;;34.97;19.55;;;13.10;99.90;;;;;;5096770;28;20130;-70
2022/06/05 07:22:21;;;;;;;35.95;21.17;;;13.10;99.90;;;;;;5096255;28;20046;-69
2022/06/05 07:24:48;;;;;;;29.08;19.17;;;13.20;99.90;;;;;;5095345;28;20040;-69
2022/06/05 07:27:15;;;;;;;41.28;20.85;;;13.10;99.90;;;;;;5096405;28;20051;-70
2022/06/05 07:29:42;;;;;;;33.28;20.77;;;13.20;99.90;;;;;;5094669;28;20036;-69
2022/06/05 07:32:09;;;;;;;30.55;21.08;;;13.10;99.90;;;;;;5095848;28;20048;-69
2022/06/05 07:34:36;;;;;;;36.30;21.73;;;13.10;99.90;;;;;;5095869;28;20070;-69
2022/06/05 07:37:09;;;;;;;35.17;20.30;;;13.10;99.90;;;;;;5094755;28;20043;-69
2022/06/05 07:39:36;;;;;;;33.97;20.67;;;13.10;99.90;;;;;;5093622;28;20059;-69
2022/06/05 07:42:03;;;;;;;31.67;19.85;;;13.20;99.90;;;;;;5094609;28;20035;-70
2022/06/05 07:44:30;;;;;;;33.28;20.88;;;13.20;99.90;;;;;;5094784;28;20040;-69
2022/06/05 07:46:57;;;;;;;35.80;20.95;;;13.10;99.90;;;;;;5094730;28;20040;-69
2022/06/05 07:49:24;;;;;;;30.75;20.92;;;13.20;99.90;;;;;;5095835;28;20044;-69
2022/06/05 07:54:37;;;;;;;35.15;20.80;;;13.30;99.90;;;;;;5094579;28;20048;-69
2022/06/05 07:57:05;;;;;;;35.42;19.90;;;13.20;99.90;;;;;;5096099;28;20066;-69
2022/06/05 07:59:34;;;;;;;30.73;20.97;;;13.20;99.90;;;;;;5094270;28;20468;-69
2022/06/05 08:02:04;;;;;;;42.28;20.98;;;13.30;99.90;;;;;;5095276;28;20051;-67
2022/06/05 08:04:32;;;;;;;32.72;19.83;;;13.20;99.90;;;;;;5095455;28;20047;-69
2022/06/05 08:06:59;;;;;;;36.00;20.70;;;13.30;99.90;;;;;;5094061;28;20047;-69
2022/06/05 08:09:26;;;;;;;39.88;21.80;;;13.30;99.90;;;;;;5095439;28;20040;-69
2022/06/05 08:11:53;;;;;;;32.92;19.95;;;13.30;99.90;;;;;;5093979;28;20085;-69
2022/06/05 08:14:20;;;;;;;32.65;21.70;;;13.30;99.90;;;;;;5095175;28;20051;-69
2022/06/05 08:16:47;;;;;;;41.95;22.35;;;13.30;99.90;;;;;;5093785;28;20054;-69
2022/06/05 08:19:19;;;;;;;35.50;20.85;;;13.30;99.90;;;;;;5095290;28;20098;-69
2022/06/05 08:21:47;;;;;;;40.05;21.48;;;13.30;99.90;;;;;;5095478;28;20506;-69
2022/06/05 08:24:14;;;;;;;36.45;22.92;;;13.30;99.90;;;;;;5077565;28;20047;-69
2022/06/05 08:26:41;;;;;;;31.23;21.10;;;13.30;99.90;;;;;;5093862;28;20040;-69
2022/06/05 08:29:08;;;;;;;33.00;19.73;;;13.40;99.90;;;;;;5094385;28;20042;-69
2022/06/05 08:31:35;;;;;;;35.50;21.58;;;13.30;99.90;;;;;;5094827;28;20058;-69
2022/06/05 08:34:02;;;;;;;32.83;21.20;;;13.40;99.90;;;;;;5077789;28;20364;-69
2022/06/05 08:36:30;;;;;;;31.88;20.02;;;13.40;99.90;;;;;;5094853;28;20371;-69
2022/06/05 08:42:12;;;;;;;34.35;21.65;;;13.40;99.90;;;;;;5094702;28;20052;-69
2022/06/05 08:44:52;;;;;;;37.15;21.23;;;13.30;99.90;;;;;;5094591;28;20040;-69
2022/06/05 08:47:25;;;;;;;33.97;20.30;;;13.30;99.90;;;;;;5094420;28;20044;-70
2022/06/05 08:50:10;;;;;;;67.93;47.35;;;13.20;99.90;;;;;;5094658;28;20044;-72
2022/06/05 08:52:45;;;;;;;40.67;24.05;;;13.20;99.90;;;;;;5094631;28;20398;-70
2022/06/05 08:55:15;;;;;;;35.50;22.00;;;13.20;99.90;;;;;;5093398;28;20051;-70
2022/06/05 08:57:57;;;;;;;;;;;13.20;99.90;;;;;;5093573;28;20044;-70
2022/06/05 09:00:31;;;;;;;34.60;22.15;;;13.30;99.90;;;;;;5094509;28;19939;-70
2022/06/05 09:03:19;;;;;;;32.85;22.13;;;13.20;99.90;;;;;;5095371;28;20035;-70
2022/06/05 09:05:47;;;;;;;32.75;20.75;;;13.20;99.90;;;;;;5093081;28;20083;-70
2022/06/05 09:08:22;;;;;;;41.30;22.25;;;13.10;99.90;;;;;;5093229;28;20133;-70
2022/06/05 09:10:51;;;;;;;32.92;19.88;;;13.10;99.90;;;;;;5092873;28;20525;-70
2022/06/05 09:13:28;;;;;;;34.47;20.75;;;13.20;99.90;;;;;;5092756;28;20480;-70
2022/06/05 09:15:57;;;;;;;29.00;19.85;;;13.20;99.90;;;;;;5092952;28;20415;-70
2022/06/05 09:18:25;;;;;;;;;;;13.10;99.90;;;;;;5076427;28;20075;-70
2022/06/05 09:20:59;;;;;;;29.67;19.48;;;13.10;99.90;;;;;;5076654;28;19920;-70
2022/06/05 09:23:41;;;;;;;28.80;19.88;;;13.20;99.90;;;;;;5092896;28;20080;-70
2022/06/05 09:26:18;;;;;;;30.90;20.90;;;13.20;99.90;;;;;;5093718;28;20047;-70
2022/06/05 09:29:09;;;;;;;34.08;20.65;;;13.20;99.90;;;;;;5094775;28;20052;-70
2022/06/05 09:31:49;;;;;;;33.35;20.88;;;13.20;99.90;;;;;;5094446;28;20094;-70
2022/06/05 09:34:34;;;;;;;34.88;21.25;;;13.20;99.90;;;;;;5092445;28;20047;-70
2022/06/05 09:37:30;;;;;;;32.58;22.35;;;13.30;99.90;;;;;;5092589;28;20040;-70
2022/06/05 09:40:16;;;;;;;29.45;19.45;;;13.40;99.90;;;;;;5094620;28;20044;-70
2022/06/05 09:43:01;;;;;;;31.05;20.50;;;13.40;99.90;;;;;;5092713;28;20042;-70
2022/06/05 09:45:35;;;;;;;30.25;19.52;;;13.50;99.90;;;;;;5094288;28;20055;-70
2022/06/05 09:48:18;;;;;;;27.83;19.92;;;13.60;99.90;;;;;;5093434;28;20394;-70
2022/06/05 09:50:45;;;;;;;32.60;19.75;;;13.70;99.90;;;;;;5093334;28;20044;-70
2022/06/05 09:53:17;;;;;;;26.75;18.92;;;13.70;99.90;;;;;;5093625;28;20364;-70
2022/06/05 09:55:56;;;;;;;27.15;19.10;;;13.80;99.90;;;;;;5075473;28;20040;-70
2022/06/05 09:58:31;;;;;;;23.67;16.73;;;13.80;99.90;;;;;;5076267;28;20399;-70
2022/06/05 10:01:00;;;;;;;26.92;17.90;;;13.80;99.90;;;;;;5092027;28;20496;-70
2022/06/05 10:03:31;;;;;;;27.33;18.20;;;13.90;99.90;;;;;;5091342;28;20490;-70
2022/06/05 10:06:21;;;;;;;26.27;19.00;;;13.90;99.90;;;;;;5092929;28;20046;-70
2022/06/05 10:08:54;;;;;;;23.13;15.93;;;14.00;99.90;;;;;;5092858;28;20046;-70
2022/06/05 10:11:38;;;;;;;21.00;15.10;;;14.00;99.90;;;;;;5093337;28;20459;-71
2022/06/05 10:14:39;;;;;;;26.30;15.75;;;14.10;99.90;;;;;;5091930;28;20044;-70
2022/06/05 10:17:26;;;;;;;20.00;15.52;;;14.20;99.90;;;;;;5093242;28;20040;-70
2022/06/05 10:20:15;;;;;;;19.33;15.02;;;14.40;99.90;;;;;;5093353;28;20048;-70
2022/06/05 10:22:49;;;;;;;19.85;15.48;;;14.40;99.90;;;;;;5093913;28;20048;-71
2022/06/05 10:25:16;;;;;;;20.52;15.65;;;14.30;99.90;;;;;;5092659;28;20447;-70
2022/06/05 10:27:50;;;;;;;24.05;17.70;;;14.30;99.90;;;;;;5093199;28;20372;-70
2022/06/05 10:30:18;;;;;;;25.00;17.33;;;14.40;99.90;;;;;;5092017;28;20036;-70
2022/06/05 10:33:00;;;;;;;23.60;17.73;;;14.40;99.90;;;;;;5075131;28;20130;-70
2022/06/05 10:35:35;;;;;;;23.67;17.00;;;14.40;99.90;;;;;;5092690;28;20047;-70
2022/06/05 10:38:29;;;;;;;22.20;16.08;;;14.30;99.90;;;;;;5092721;28;20047;-70
2022/06/05 10:41:04;;;;;;;24.38;18.30;;;14.30;99.90;;;;;;5092870;28;20044;-70
2022/06/05 10:43:31;;;;;;;25.85;17.33;;;14.20;99.90;;;;;;5076102;28;20375;-70
2022/06/05 10:46:06;;;;;;;28.63;19.13;;;14.20;99.90;;;;;;5091679;28;20134;-70
2022/06/05 10:48:57;;;;;;;31.77;20.25;;;14.20;99.90;;;;;;5091697;28;20542;-70
2022/06/05 10:51:35;;;;;;;27.95;18.95;;;14.30;99.90;;;;;;5092676;28;20040;-70
2022/06/05 10:54:14;;;;;;;30.25;20.73;;;14.40;99.90;;;;;;5092183;28;20040;-70
2022/06/05 10:57:03;;;;;;;23.17;18.63;;;14.30;99.90;;;;;;5093876;28;20148;-70
2022/06/05 10:59:48;;;;;;;25.93;17.97;;;14.40;99.90;;;;;;5092759;28;20044;-71
2022/06/05 11:02:30;;;;;;;24.95;18.67;;;14.30;99.90;;;;;;5092719;28;20281;-70
2022/06/05 11:05:15;;;;;;;27.95;19.30;;;14.30;99.90;;;;;;5092677;28;20498;-70
2022/06/05 11:08:03;;;;;;;31.73;20.48;;;14.30;99.90;;;;;;5092420;28;20067;-70
2022/06/05 11:13:57;;;;;;;29.45;18.90;;;14.40;99.90;;;;;;5093780;28;20490;-70
2022/06/05 11:17:02;;;;;;;26.73;18.13;;;14.30;99.90;;;;;;5097194;28;20143;-70
2022/06/05 11:20:07;;;;;;;26.25;19.00;;;14.50;99.90;;;;;;5096971;28;20051;-70
2022/06/05 11:22:36;;;;;;;25.48;18.85;;;14.50;99.90;;;;;;5078032;28;20113;-70
2022/06/05 11:25:22;;;;;;;25.00;19.73;;;14.60;99.90;;;;;;5078004;28;20135;-70
2022/06/05 11:28:11;;;;;;;26.80;18.73;;;14.60;99.90;;;;;;5087547;28;20046;-70
2022/06/05 11:31:00;;;;;;;29.52;19.67;;;14.60;99.90;;;;;;5096930;28;20376;-71
2022/06/05 11:33:28;;;;;;;29.45;18.90;;;14.60;99.90;;;;;;5095777;28;20139;-70
2022/06/05 11:36:24;;;;;;;26.55;20.05;;;14.60;99.90;;;;;;5095503;28;20055;-70
2022/06/05 11:39:09;;;;;;;27.33;18.83;;;14.70;99.90;;;;;;5095489;28;20448;-70
2022/06/05 11:41:47;;;;;;;28.45;19.70;;;14.70;99.90;;;;;;5095795;28;20468;-70
2022/06/05 11:44:45;;;;;;;29.92;22.48;;;14.60;99.90;;;;;;5077889;28;20412;-70
2022/06/05 11:47:38;;;;;;;30.25;19.80;;;14.70;99.90;;;;;;5094858;28;20040;-70
2022/06/05 11:50:20;;;;;;;29.40;20.77;;;14.70;99.90;;;;;;5094454;28;20047;-71
2022/06/05 11:53:30;;;;;;;26.58;20.23;;;14.80;99.90;;;;;;5095864;28;20056;-70
2022/06/05 11:56:16;;;;;;;30.17;21.13;;;14.90;99.90;;;;;;5095060;28;20044;-70
2022/06/05 11:59:20;;;;;;;26.45;19.95;;;14.90;99.90;;;;;;5095154;28;20040;-69
2022/06/05 12:02:00;;;;;;;26.98;18.50;;;15.10;99.90;;;;;;5094328;28;20072;-70
2022/06/05 12:05:18;;;;;;;25.13;18.27;;;15.20;99.90;;;;;;5094255;28;20486;-70
2022/06/05 12:07:47;;;;;;;25.15;19.33;;;15.20;99.90;;;;;;5094511;28;20044;-70
2022/06/05 12:10:26;;;;;;;28.60;22.00;;;15.20;99.90;;;;;;5094370;28;20048;-70
2022/06/05 12:13:19;;;;;;;24.58;18.35;;;15.20;99.90;;;;;;5078251;28;20058;-70
2022/06/05 12:15:48;;;;;;;26.77;20.52;;;15.30;99.90;;;;;;5094822;28;20055;-70
2022/06/05 12:18:19;;;;;;;29.40;21.70;;;15.50;99.90;;;;;;5095930;28;20413;-70
2022/06/05 12:21:18;;;;;;;29.08;20.58;;;15.50;99.90;;;;;;5093960;28;20054;-70
2022/06/05 12:24:00;;;;;;;26.35;19.90;;;15.60;99.90;;;;;;5094585;28;20046;-69
2022/06/05 12:26:37;;;;;;;25.73;19.98;;;15.60;99.90;;;;;;5093954;28;20044;-70
2022/06/05 12:29:11;;;;;;;28.88;19.25;;;15.60;99.90;;;;;;5094142;28;20131;-70
2022/06/05 12:32:01;;;;;;;26.42;19.45;;;15.80;99.90;;;;;;5093623;28;20044;-70
2022/06/05 12:34:38;;;;;;;;;;;15.90;99.90;;;;;;5094309;28;20050;-70
2022/06/05 12:37:38;;;;;;;26.67;19.42;;;15.90;99.90;;;;;;5094533;28;20022;-69
2022/06/05 12:40:13;;;;;;;27.40;20.70;;;16.10;99.90;;;;;;5095109;28;20051;-69
2022/06/05 12:43:11;;;;;;;127.53;89.90;;;16.00;99.90;;;;;;5093505;28;20048;-70
2022/06/05 12:45:40;;;;;;;31.30;22.92;;;16.00;99.90;;;;;;5079688;28;20135;-68
2022/06/05 12:48:21;;;;;;;26.85;19.65;;;16.00;99.90;;;;;;5093421;28;20036;-74
2022/06/05 12:51:02;;;;;;;21.13;17.20;;;16.10;99.90;;;;;;5094222;28;20044;-70
2022/06/05 12:53:36;;;;;;;22.55;17.73;;;16.10;99.90;;;;;;5093278;28;20445;-69
2022/06/05 12:56:32;;;;;;;26.80;20.02;;;16.10;99.90;;;;;;5093374;28;20060;-69
2022/06/05 12:59:22;;;;;;;23.15;18.83;;;16.30;99.90;;;;;;5093576;28;20472;-69
2022/06/05 13:02:06;;;;;;;26.67;21.73;;;16.30;99.90;;;;;;5094292;28;20059;-69
2022/06/05 13:04:57;;;;;;;26.90;20.73;;;16.40;99.90;;;;;;5093065;28;20051;-69
2022/06/05 13:07:46;;;;;;;24.35;19.30;;;16.40;99.90;;;;;;5093037;28;20040;-68
2022/06/05 13:10:35;;;;;;;25.23;19.05;;;16.30;99.90;;;;;;5092939;28;20044;-70
2022/06/05 13:13:17;;;;;;;21.90;18.23;;;16.30;99.90;;;;;;5092842;28;20044;-75
2022/06/05 13:15:52;;;;;;;26.38;20.55;;;16.30;99.90;;;;;;5094215;28;20364;-72